Time;durP1;ratioP1;P1;durP2;ratioP2;P2;SDS_P1;SDS_P2;PMS_P1;PMS_P2;Temp;Humidity;BMP_temperature;BMP_pressure;BME280_temperature;BME280_humidity;BME280_pressure;Samples;Min_cycle;Max_cycle;Signal;HPM_P1;HPM_P2
2022/01/17 15:20:14;;;;;;;;;;;1.30;99.90;;;;;;5081117;27;2186355;-93
2022/01/17 15:22:40;;;;;;;;;;;1.30;99.90;;;;;;5142637;27;19912;-93
2022/01/17 15:25:06;;;;;;;;;;;1.20;99.90;;;;;;5134756;27;19911;-92
2022/01/17 15:27:32;;;;;;;;;;;1.20;99.90;;;;;;5135691;27;20271;-95
2022/01/17 15:29:57;;;;;;;;;;;1.30;99.90;;;;;;5135065;27;19914;-95
2022/01/17 15:32:23;;;;;;;;;;;1.30;99.90;;;;;;5141988;27;19950;-95
2022/01/17 15:34:49;;;;;;;;;;;1.30;99.90;;;;;;5154761;27;20315;-93
2022/01/17 15:37:14;;;;;;;;;;;1.40;99.90;;;;;;5150673;27;19949;-92
2022/01/17 15:42:45;;;;;;;;;;;1.40;99.90;;;;;;5153425;27;19952;-93
2022/01/17 15:45:11;;;;;;;;;;;1.40;99.90;;;;;;5140560;27;19914;-95
2022/01/17 15:47:37;;;;;;;;;;;1.40;99.90;;;;;;5144039;27;19912;-94
2022/01/17 15:50:03;;;;;;;;;;;1.40;99.90;;;;;;5155804;27;19915;-94
2022/01/17 15:52:53;;;;;;;;;;;1.40;99.90;;;;;;5400259;22;19915;-96
2022/01/17 15:55:47;;;;;;;;;;;1.40;99.90;;;;;;5179262;22;19925;-95
2022/01/17 15:58:15;;;;;;;;;;;1.40;99.90;;;;;;5100620;28;19984;-95
2022/01/17 16:00:41;;;;;;;;;;;1.40;99.90;;;;;;5084894;28;19908;-95
2022/01/17 16:03:06;;;;;;;;;;;1.40;99.90;;;;;;5082972;28;19916;-94
2022/01/17 16:05:32;;;;;;;;;;;1.40;99.90;;;;;;5086024;28;19909;-95
2022/01/17 16:08:01;;;;;;;;;;;1.40;99.90;;;;;;5090675;28;19912;-96
2022/01/17 16:10:28;;;;;;;;;;;1.40;99.90;;;;;;5109126;28;20408;-95
2022/01/17 16:12:57;;;;;;;;;;;1.30;99.90;;;;;;5090191;28;19915;-93
2022/01/17 16:15:35;;;;;;;;;;;1.30;99.90;;;;;;5102076;28;19908;-94
2022/01/17 16:18:02;;;;;;;;;;;1.30;99.90;;;;;;5094276;28;19915;-92
2022/01/17 16:20:28;;;;;;;;;;;1.30;99.90;;;;;;5074999;28;19908;-93
2022/01/17 16:22:54;;;;;;;;;;;1.30;99.90;;;;;;5061473;28;19912;-93
2022/01/17 16:25:20;;;;;;;;;;;1.30;99.90;;;;;;5063102;28;19916;-94
2022/01/17 16:27:46;;;;;;;;;;;1.30;99.90;;;;;;5065340;28;19913;-92
2022/01/17 16:30:12;;;;;;;;;;;1.40;99.90;;;;;;5058839;28;19920;-93
2022/01/17 16:32:38;;;;;;;;;;;1.30;99.90;;;;;;5061371;28;19912;-92
2022/01/17 16:35:05;;;;;;;;;;;1.30;99.90;;;;;;5059649;28;20383;-95
2022/01/17 16:37:30;;;;;;;;;;;1.40;99.90;;;;;;5058662;28;19917;-95
2022/01/17 16:39:56;;;;;;;;;;;1.40;99.90;;;;;;5061613;28;19934;-94
2022/01/17 16:42:25;;;;;;;;;;;1.30;99.90;;;;;;5064612;28;19908;-95
2022/01/17 16:44:52;;;;;;;;;;;1.30;99.90;;;;;;5065353;28;20015;-95
2022/01/17 16:47:17;;;;;;;;;;;1.30;99.90;;;;;;5059146;28;20007;-93
2022/01/17 16:49:45;;;;;;;;;;;1.30;99.90;;;;;;5059060;28;19952;-93
2022/01/17 16:52:11;;;;;;;;;;;1.30;99.90;;;;;;5077443;28;20380;-94
2022/01/17 16:54:36;;;;;;;;;;;1.30;99.90;;;;;;5045168;28;19938;-92
2022/01/17 16:57:02;;;;;;;;;;;1.30;99.90;;;;;;5058366;28;19912;-91
2022/01/17 16:59:27;;;;;;;;;;;1.30;99.90;;;;;;5075578;28;19919;-91
2022/01/17 17:01:53;;;;;;;;;;;1.30;99.90;;;;;;5055447;28;19916;-91
2022/01/17 17:04:19;;;;;;;;;;;1.30;99.90;;;;;;5057709;28;19913;-90
2022/01/17 17:06:45;;;;;;;;;;;1.30;99.90;;;;;;5056675;28;19927;-90
2022/01/17 17:09:10;;;;;;;;;;;1.30;99.90;;;;;;5056754;28;20022;-92
2022/01/17 17:11:38;;;;;;;;;;;1.30;99.90;;;;;;5056948;28;19913;-92
2022/01/17 17:14:03;;;;;;;;;;;1.30;99.90;;;;;;5073696;28;19981;-93
2022/01/17 17:16:29;;;;;;;;;;;1.30;99.90;;;;;;5059686;28;20372;-91
2022/01/17 17:18:55;;;;;;;;;;;1.30;99.90;;;;;;5057085;28;19920;-91
2022/01/17 17:21:20;;;;;;;;;;;1.30;99.90;;;;;;5054519;28;19917;-92
2022/01/17 17:23:46;;;;;;;;;;;1.30;99.90;;;;;;5053091;28;19943;-92
2022/01/17 17:26:11;;;;;;;;;;;1.30;99.90;;;;;;5057465;28;19957;-93
2022/01/17 17:28:38;;;;;;;;;;;1.30;99.90;;;;;;5057916;28;19917;-92
2022/01/17 17:31:04;;;;;;;;;;;1.30;99.90;;;;;;5076449;28;19913;-93
2022/01/17 17:33:29;;;;;;;;;;;1.30;99.90;;;;;;5056634;28;20007;-93
2022/01/17 17:35:55;;;;;;;;;;;1.30;99.90;;;;;;5053810;28;20033;-93
2022/01/17 17:38:22;;;;;;;;;;;1.30;99.90;;;;;;5056341;28;19970;-94
2022/01/17 17:40:48;;;;;;;;;;;1.30;99.90;;;;;;5057113;28;20007;-92
2022/01/17 17:43:13;;;;;;;;;;;1.30;99.90;;;;;;5072455;28;20011;-91
2022/01/17 17:45:39;;;;;;;;;;;1.20;99.90;;;;;;5052861;28;19999;-92
2022/01/17 17:48:05;;;;;;;;;;;1.30;99.90;;;;;;5057298;28;19921;-93
2022/01/17 17:50:30;;;;;;;;;;;1.30;99.90;;;;;;5057306;28;19916;-92
2022/01/17 17:52:56;;;;;;;;;;;1.30;99.90;;;;;;5053408;28;20400;-91
2022/01/17 17:55:22;;;;;;;;;;;1.30;99.90;;;;;;5065514;28;19925;-93
2022/01/17 17:57:53;;;;;;;;;;;1.30;99.90;;;;;;5055559;28;19938;-94
2022/01/17 18:00:19;;;;;;;;;;;1.30;99.90;;;;;;5047389;28;19913;-93
2022/01/17 18:02:50;;;;;;;;;;;1.30;99.90;;;;;;5052142;28;19913;-92
2022/01/17 18:05:16;;;;;;;;;;;1.30;99.90;;;;;;5056753;28;19963;-94
2022/01/17 18:07:42;;;;;;;;;;;1.30;99.90;;;;;;5045384;28;19917;-94
2022/01/17 18:10:07;;;;;;;;;;;1.20;99.90;;;;;;5056389;28;20077;-95
2022/01/17 18:12:34;;;;;;;;;;;1.30;99.90;;;;;;5055851;28;19912;-92
2022/01/17 18:14:59;;;;;;;;;;;1.30;99.90;;;;;;5054303;28;19935;-93
2022/01/17 18:17:25;;;;;;;;;;;1.20;99.90;;;;;;5052823;28;19917;-92
2022/01/17 18:19:51;;;;;;;;;;;1.20;99.90;;;;;;5074360;28;19963;-91
2022/01/17 18:22:16;;;;;;;;;;;1.20;99.90;;;;;;5050197;28;19913;-93
2022/01/17 18:24:42;;;;;;;;;;;1.20;99.90;;;;;;5053817;28;20349;-94
2022/01/17 18:27:07;;;;;;;;;;;1.20;99.90;;;;;;5056804;28;19912;-92
2022/01/17 18:29:33;;;;;;;;;;;1.20;99.90;;;;;;5048034;28;19921;-93
2022/01/17 18:31:59;;;;;;;;;;;1.20;99.90;;;;;;5048987;28;19955;-91
2022/01/17 18:34:24;;;;;;;;;;;1.20;99.90;;;;;;5055190;28;19919;-93
2022/01/17 18:36:50;;;;;;;;;;;1.20;99.90;;;;;;5054271;28;19966;-92
2022/01/17 18:39:16;;;;;;;;;;;1.20;99.90;;;;;;5068051;28;20403;-93
2022/01/17 18:41:41;;;;;;;;;;;1.20;99.90;;;;;;5065628;28;19912;-93
2022/01/17 18:44:12;;;;;;;;;;;1.20;99.90;;;;;;5054537;28;20004;-93
2022/01/17 18:46:37;;;;;;;;;;;1.20;99.90;;;;;;5054161;28;19956;-93
2022/01/17 18:49:06;;;;;;;;;;;1.20;99.90;;;;;;5057522;28;20084;-95
2022/01/17 18:51:33;;;;;;;;;;;1.20;99.90;;;;;;5059601;28;19912;-90
2022/01/17 18:53:59;;;;;;;;;;;1.20;99.90;;;;;;5064184;28;19916;-90
2022/01/17 18:56:26;;;;;;;;;;;1.20;99.90;;;;;;5070108;28;19912;-90
2022/01/17 18:58:53;;;;;;;;;;;1.20;99.90;;;;;;5070385;28;19919;-91
2022/01/17 19:01:19;;;;;;;;;;;1.20;99.90;;;;;;5054724;28;19913;-91
2022/01/17 19:03:46;;;;;;;;;;;1.30;99.90;;;;;;5051710;28;19919;-90
2022/01/17 19:06:12;;;;;;;;;;;1.20;99.90;;;;;;5052860;28;19964;-92
2022/01/17 19:08:38;;;;;;;;;;;1.30;99.90;;;;;;5073037;28;19952;-92
2022/01/17 19:11:04;;;;;;;;;;;1.30;99.90;;;;;;5054755;28;19991;-90
2022/01/17 19:13:30;;;;;;;;;;;1.30;99.90;;;;;;5070513;28;19966;-91
2022/01/17 19:15:55;;;;;;;;;;;1.30;99.90;;;;;;5053418;28;20327;-92
2022/01/17 19:18:26;;;;;;;;;;;1.30;99.90;;;;;;5071286;28;19916;-92
2022/01/17 19:23:31;;;;;;;;;;;1.30;99.90;;;;;;5074013;28;20007;-96
2022/01/17 19:25:57;;;;;;;;;;;1.30;99.90;;;;;;5052376;28;19968;-92
2022/01/17 19:28:24;;;;;;;;;;;1.40;99.90;;;;;;5073332;28;19959;-94
2022/01/17 19:30:50;;;;;;;;;;;1.40;99.90;;;;;;5055716;28;19916;-93
2022/01/17 19:33:16;;;;;;;;;;;1.40;99.90;;;;;;5055238;28;19913;-91
2022/01/17 19:35:41;;;;;;;;;;;1.40;99.90;;;;;;5072953;28;19931;-92
2022/01/17 19:38:07;;;;;;;;;;;1.40;99.90;;;;;;5055634;28;20026;-93
2022/01/17 19:40:38;;;;;;;;;;;1.40;99.90;;;;;;5069064;28;19962;-92
2022/01/17 19:43:04;;;;;;;;;;;1.50;99.90;;;;;;5073993;28;19977;-93
2022/01/17 19:45:29;;;;;;;;;;;1.50;99.90;;;;;;5074237;28;20353;-92
2022/01/17 20:23:44;;;;;;;;;;;0.60;99.90;;;;;;5113052;27;20353;-92
2022/01/17 20:26:09;;;;;;;;;;;0.50;99.90;;;;;;5130839;27;19916;-92
2022/01/17 20:28:35;;;;;;;;;;;0.50;99.90;;;;;;5091913;28;20319;-93
2022/01/17 20:31:01;;;;;;;;;;;0.60;99.90;;;;;;5090877;28;19912;-93
2022/01/17 20:33:26;;;;;;;;;;;0.60;99.90;;;;;;5090618;28;20010;-92
2022/01/17 20:35:52;;;;;;;;;;;0.70;99.90;;;;;;5090593;28;19908;-91
2022/01/17 20:38:18;;;;;;;;;;;0.80;99.90;;;;;;5090660;28;20006;-93
2022/01/17 20:40:43;;;;;;;;;;;0.80;99.90;;;;;;5090497;28;19916;-93
